createdAt,value
2019-02-14T00:02:02.150Z,99849.00
2019-02-14T00:07:08.988Z,99836.00
2019-02-14T00:12:34.182Z,99846.00
2019-02-14T00:17:40.763Z,99841.00
2019-02-14T00:22:47.144Z,99849.00
2019-02-14T00:27:54.254Z,99836.00
2019-02-14T00:33:01.043Z,99845.00
2019-02-14T00:38:07.974Z,99847.00
2019-02-14T00:43:14.591Z,99831.00
2019-02-14T00:48:21.790Z,99841.00
2019-02-14T00:53:27.600Z,99835.00
2019-02-14T00:58:34.448Z,99839.00
2019-02-14T01:03:41.258Z,99833.00
2019-02-14T01:08:47.763Z,99831.00
2019-02-14T01:13:54.268Z,99840.00
2019-02-14T01:19:01.377Z,99840.00
2019-02-14T01:24:08.180Z,99852.00
2019-02-14T01:29:14.572Z,99848.00
2019-02-14T01:34:21.126Z,99866.00
2019-02-14T01:39:28.198Z,99860.00
2019-02-14T01:44:35.050Z,99862.00
2019-02-14T01:49:41.952Z,99855.00
2019-02-14T01:54:48.813Z,99851.00
2019-02-14T01:59:55.432Z,99856.00
2019-02-14T02:05:02.435Z,99864.00
2019-02-14T02:10:12.361Z,99857.00
2019-02-14T02:15:19.224Z,99867.00
2019-02-14T02:20:33.057Z,99859.00
2019-02-14T02:25:34.429Z,99859.00
2019-02-14T02:30:41.754Z,99863.00
2019-02-14T02:35:48.148Z,99868.00
2019-02-14T02:40:55.202Z,99867.00
2019-02-14T02:46:01.905Z,99860.00
2019-02-14T02:51:08.612Z,99866.00
2019-02-14T02:56:15.429Z,99859.00
2019-02-14T03:01:22.111Z,99864.00
2019-02-14T03:06:47.183Z,99858.00
2019-02-14T03:11:54.373Z,99861.00
2019-02-14T03:17:01.207Z,99873.00
2019-02-14T03:22:08.136Z,99872.00
2019-02-14T03:27:15.199Z,99874.00
2019-02-14T03:32:21.813Z,99879.00
2019-02-14T03:37:47.067Z,99887.00
2019-02-14T03:42:54.152Z,99879.00
2019-02-14T03:48:01.117Z,99890.00
2019-02-14T03:53:08.017Z,99888.00
2019-02-14T03:58:14.705Z,99894.00
2019-02-14T04:03:21.900Z,99878.00
2019-02-14T04:08:27.966Z,99868.00
2019-02-14T04:13:34.945Z,99875.00
2019-02-14T04:18:42.154Z,99877.00
2019-02-14T04:23:49.280Z,99895.00
2019-02-14T04:28:56.330Z,99882.00
2019-02-14T04:34:03.277Z,99889.00
2019-02-14T04:39:10.307Z,99878.00
2019-02-14T04:44:17.421Z,99881.00
2019-02-14T04:49:23.537Z,99868.00
2019-02-14T04:54:30.493Z,99889.00
2019-02-14T04:59:37.305Z,99887.00
2019-02-14T05:04:44.309Z,99868.00
2019-02-14T05:09:52.515Z,99874.00
2019-02-14T05:14:59.533Z,99886.00
2019-02-14T05:20:10.245Z,99868.00
2019-02-14T05:25:17.164Z,99877.00
2019-02-14T05:30:23.301Z,99869.00
2019-02-14T05:35:29.325Z,99890.00
2019-02-14T05:40:35.337Z,99892.00
2019-02-14T05:45:42.031Z,99885.00
2019-02-14T05:50:48.984Z,99885.00
2019-02-14T05:55:56.211Z,99884.00
2019-02-14T06:01:03.572Z,99879.00
2019-02-14T06:06:10.510Z,99875.00
2019-02-14T06:11:17.358Z,99891.00
2019-02-14T06:16:23.463Z,99886.00
2019-02-14T06:21:29.546Z,99899.00
2019-02-14T06:26:48.374Z,99885.00
2019-02-14T06:31:57.477Z,99896.00
2019-02-14T06:37:09.658Z,99903.00
2019-02-14T06:42:12.105Z,99904.00
2019-02-14T06:47:18.639Z,99920.00
2019-02-14T06:52:24.766Z,99900.00
2019-02-14T06:57:32.132Z,99907.00
2019-02-14T07:02:39.149Z,99919.00
2019-02-14T07:07:46.006Z,99929.00
2019-02-14T07:12:53.005Z,99912.00
2019-02-14T07:18:00.221Z,99932.00
2019-02-14T07:23:07.080Z,99924.00
2019-02-14T07:28:14.126Z,99951.00
2019-02-14T07:33:20.691Z,99946.00
2019-02-14T07:38:26.846Z,99958.00
2019-02-14T07:43:33.019Z,99948.00
2019-02-14T07:48:39.043Z,99943.00
2019-02-14T07:53:45.568Z,99960.00
2019-02-14T07:58:52.087Z,99954.00
2019-02-14T08:03:59.327Z,99963.00
2019-02-14T08:09:07.461Z,99964.00
2019-02-14T08:14:14.397Z,99923.00
2019-02-14T08:19:21.269Z,99947.00
2019-02-14T08:24:27.312Z,99960.00
2019-02-14T08:29:33.326Z,99946.00
2019-02-14T08:34:39.411Z,99955.00
2019-02-14T08:39:46.767Z,99971.00
2019-02-14T08:44:54.019Z,99979.00
2019-02-14T08:50:01.155Z,99984.00
2019-02-14T08:55:11.371Z,99981.00
2019-02-14T09:00:18.765Z,99995.00
2019-02-14T09:05:24.777Z,100001.00
2019-02-14T09:10:30.830Z,100001.00
2019-02-14T09:15:39.052Z,100008.00
2019-02-14T09:20:46.069Z,99987.00
2019-02-14T09:25:53.254Z,99962.00
2019-02-14T09:31:01.002Z,99963.00
2019-02-14T09:36:07.625Z,99972.00
2019-02-14T09:41:14.586Z,99973.00
2019-02-14T09:46:21.608Z,99960.00
2019-02-14T09:51:27.614Z,99967.00
2019-02-14T09:56:34.697Z,99985.00
2019-02-14T10:01:42.008Z,99966.00
2019-02-14T10:06:49.199Z,99960.00
2019-02-14T10:11:56.664Z,99961.00
2019-02-14T10:17:03.707Z,99943.00
2019-02-14T10:22:11.100Z,99941.00
2019-02-14T10:27:18.134Z,99928.00
2019-02-14T10:32:24.159Z,99923.00
2019-02-14T10:37:30.293Z,99907.00
2019-02-14T10:42:37.094Z,99908.00
2019-02-14T10:47:44.023Z,99924.00
2019-02-14T10:52:51.091Z,99926.00
2019-02-14T10:57:58.014Z,99941.00
2019-02-14T11:03:05.416Z,99924.00
2019-02-14T11:08:12.361Z,99920.00
2019-02-14T11:13:19.776Z,99901.00
2019-02-14T11:18:25.858Z,99901.00
2019-02-14T11:23:34.217Z,99921.00
2019-02-14T11:28:41.235Z,99932.00
2019-02-14T11:33:48.256Z,99943.00
2019-02-14T11:38:55.375Z,99932.00
2019-02-14T11:44:02.952Z,99931.00
2019-02-14T11:49:09.997Z,99935.00
2019-02-14T11:54:16.475Z,99924.00
2019-02-14T11:59:28.732Z,99937.00
2019-02-14T12:04:35.523Z,99939.00
2019-02-14T12:09:42.347Z,99928.00
2019-02-14T12:14:48.861Z,99926.00
2019-02-14T12:19:56.659Z,99916.00
2019-02-14T12:25:03.348Z,99907.00
2019-02-14T12:30:15.607Z,99896.00
2019-02-14T12:35:22.346Z,99882.00
2019-02-14T12:40:28.406Z,99879.00
2019-02-14T12:45:36.290Z,99886.00
2019-02-14T12:50:42.929Z,99878.00
2019-02-14T12:55:49.882Z,99866.00
2019-02-14T13:00:57.434Z,99874.00
2019-02-14T13:06:06.132Z,99864.00
2019-02-14T13:11:12.735Z,99855.00
2019-02-14T13:16:19.882Z,99856.00
2019-02-14T13:21:25.920Z,99851.00
2019-02-14T13:26:32.885Z,99850.00
2019-02-14T13:31:39.965Z,99859.00
2019-02-14T13:36:47.310Z,99854.00
2019-02-14T13:41:54.432Z,99854.00
2019-02-14T13:47:01.384Z,99868.00
2019-02-14T13:52:08.310Z,99854.00
2019-02-14T13:57:15.446Z,99859.00
2019-02-14T14:02:22.800Z,99861.00
2019-02-14T14:07:28.901Z,99861.00
2019-02-14T14:12:35.583Z,99871.00
2019-02-14T14:17:42.467Z,99874.00
2019-02-14T14:22:49.494Z,99879.00
2019-02-14T14:27:56.167Z,99875.00
2019-02-14T14:33:02.796Z,99869.00
2019-02-14T14:38:10.143Z,99866.00
2019-02-14T14:43:18.612Z,99880.00
2019-02-14T14:48:26.383Z,99877.00
2019-02-14T14:53:33.355Z,99882.00
2019-02-14T14:58:40.376Z,99885.00
2019-02-14T15:03:47.712Z,99889.00
2019-02-14T15:08:54.408Z,99881.00
2019-02-14T15:14:00.922Z,99875.00
2019-02-14T15:19:07.599Z,99880.00
2019-02-14T15:24:14.800Z,99874.00
2019-02-14T15:29:21.918Z,99883.00
2019-02-14T15:34:27.937Z,99873.00
2019-02-14T15:39:36.785Z,99883.00
2019-02-14T15:44:43.705Z,99886.00
2019-02-14T15:49:50.384Z,99883.00
2019-02-14T15:54:58.177Z,99878.00
2019-02-14T16:00:10.636Z,99870.00
2019-02-14T16:05:19.037Z,99874.00
2019-02-14T16:10:27.252Z,99871.00
2019-02-14T16:15:33.873Z,99869.00
2019-02-14T16:20:42.483Z,99862.00
2019-02-14T16:25:51.683Z,99860.00
2019-02-14T16:30:58.223Z,99860.00
2019-02-14T16:36:04.933Z,99858.00
2019-02-14T16:41:11.822Z,99858.00
2019-02-14T16:46:19.321Z,99870.00
2019-02-14T16:51:25.323Z,99858.00
2019-02-14T16:56:32.634Z,99854.00
2019-02-14T17:01:39.681Z,99853.00
2019-02-14T17:06:46.884Z,99861.00
2019-02-14T17:12:06.143Z,99854.00
2019-02-14T17:17:13.088Z,99869.00
2019-02-14T17:22:19.981Z,99861.00
2019-02-14T17:27:26.084Z,99864.00
2019-02-14T17:32:33.187Z,99872.00
2019-02-14T17:37:40.682Z,99863.00
2019-02-14T17:42:47.534Z,99863.00
2019-02-14T17:47:54.422Z,99873.00
2019-02-14T17:53:01.620Z,99885.00
2019-02-14T17:58:09.334Z,99890.00
2019-02-14T18:03:16.303Z,99886.00
2019-02-14T18:08:23.542Z,99884.00
2019-02-14T18:13:30.668Z,99882.00
2019-02-14T18:18:36.987Z,99885.00
2019-02-14T18:23:43.804Z,99881.00
2019-02-14T18:28:50.418Z,99881.00
2019-02-14T18:33:57.673Z,99883.00
2019-02-14T18:39:07.261Z,99872.00
2019-02-14T18:44:15.069Z,99889.00
2019-02-14T18:49:22.558Z,99877.00
2019-02-14T18:54:28.684Z,99873.00
2019-02-14T18:59:35.663Z,99871.00
2019-02-14T19:04:43.508Z,99868.00
2019-02-14T19:09:50.400Z,99885.00
2019-02-14T19:14:57.646Z,99882.00
2019-02-14T19:20:05.151Z,99892.00
2019-02-14T19:25:12.400Z,99894.00
2019-02-14T19:30:19.143Z,99888.00
2019-02-14T19:35:25.166Z,99894.00
2019-02-14T19:40:32.312Z,99880.00
2019-02-14T19:45:39.979Z,99893.00
2019-02-14T19:50:47.565Z,99883.00
2019-02-14T19:55:54.569Z,99879.00
2019-02-14T20:01:04.529Z,99869.00
2019-02-14T20:06:11.528Z,99862.00
2019-02-14T20:11:19.334Z,99876.00
2019-02-14T20:16:25.924Z,99872.00
2019-02-14T20:21:32.026Z,99876.00
2019-02-14T20:26:38.739Z,99878.00
2019-02-14T20:31:45.790Z,99876.00
2019-02-14T20:36:52.767Z,99865.00
2019-02-14T20:41:59.965Z,99857.00
2019-02-14T20:47:07.146Z,99862.00
2019-02-14T20:52:14.563Z,99850.00
2019-02-14T20:57:21.927Z,99850.00
2019-02-14T21:02:28.165Z,99837.00
2019-02-14T21:07:35.358Z,99832.00
2019-02-14T21:12:41.928Z,99831.00
2019-02-14T21:17:48.939Z,99823.00
2019-02-14T21:22:55.941Z,99831.00
2019-02-14T21:28:03.861Z,99833.00
2019-02-14T21:33:11.184Z,99836.00
2019-02-14T21:38:18.714Z,99838.00
2019-02-14T21:43:25.016Z,99840.00
2019-02-14T21:48:33.292Z,99833.00
2019-02-14T21:53:40.578Z,99843.00
2019-02-14T21:58:47.745Z,99841.00
2019-02-14T22:03:54.809Z,99835.00
2019-02-14T22:09:01.454Z,99826.00
2019-02-14T22:14:09.654Z,99826.00
2019-02-14T22:19:16.482Z,99833.00
2019-02-14T22:24:23.184Z,99830.00
2019-02-14T22:29:31.186Z,99827.00
2019-02-14T22:34:37.696Z,99829.00
2019-02-14T22:39:44.200Z,99828.00
2019-02-14T22:44:51.240Z,99836.00
2019-02-14T22:49:57.769Z,99835.00
2019-02-14T22:55:10.816Z,99832.00
2019-02-14T23:00:54.940Z,99842.00
2019-02-14T23:06:03.250Z,99847.00
2019-02-14T23:11:10.136Z,99840.00
2019-02-14T23:16:17.240Z,99844.00
2019-02-14T23:21:23.429Z,99855.00
2019-02-14T23:26:31.724Z,99849.00
2019-02-14T23:31:38.245Z,99854.00
2019-02-14T23:36:46.536Z,99854.00
2019-02-14T23:41:53.637Z,99868.00
2019-02-14T23:47:00.646Z,99874.00
2019-02-14T23:52:07.614Z,99876.00
2019-02-14T23:57:14.525Z,99867.00
